Time;durP1;ratioP1;P1;durP2;ratioP2;P2;SDS_P1;SDS_P2;PMS_P1;PMS_P2;Temp;Humidity;BMP_temperature;BMP_pressure;BME280_temperature;BME280_humidity;BME280_pressure;Samples;Min_cycle;Max_cycle;Signal;HPM_P1;HPM_P2
2022/08/30 00:02:19;;;;;;;10.60;5.10;;;;;;;13.86;81.28;98785.48;105877;1274;22687;-70
2022/08/30 00:04:47;;;;;;;8.40;4.70;;;;;;;13.85;81.47;98784.80;105854;1274;25299;-70
2022/08/30 00:07:17;;;;;;;9.60;4.90;;;;;;;13.83;81.45;98783.86;105816;1278;24299;-70
2022/08/30 00:09:44;;;;;;;12.30;5.00;;;;;;;13.80;81.54;98784.81;105864;1274;24262;-70
2022/08/30 00:12:10;;;;;;;8.00;4.10;;;;;;;13.79;81.55;98784.04;105858;1274;25256;-70
2022/08/30 00:14:37;;;;;;;8.50;4.80;;;;;;;13.76;81.68;98781.16;105826;1274;22713;-70
2022/08/30 00:17:04;;;;;;;9.00;4.80;;;;;;;13.75;81.68;98787.27;105826;1278;24282;-70
2022/08/30 00:19:31;;;;;;;10.00;4.50;;;;;;;13.74;81.79;98784.36;105820;1274;23915;-70
2022/08/30 00:21:58;;;;;;;9.40;4.90;;;;;;;13.72;81.85;98786.41;105880;1274;25336;-70
2022/08/30 00:24:25;;;;;;;11.40;5.50;;;;;;;13.71;81.92;98786.68;105879;1274;22553;-70
2022/08/30 00:26:52;;;;;;;9.70;4.60;;;;;;;13.69;81.97;98784.20;105897;1274;25189;-70
2022/08/30 00:29:19;;;;;;;7.70;5.00;;;;;;;13.68;82.01;98790.20;105793;1274;25356;-70
2022/08/30 00:31:46;;;;;;;8.90;4.70;;;;;;;13.66;82.13;98790.89;105813;1274;23212;-70
2022/08/30 00:34:15;;;;;;;7.90;4.30;;;;;;;13.64;82.19;98791.38;105838;1274;23929;-70
2022/08/30 00:36:44;;;;;;;8.90;4.60;;;;;;;13.62;82.23;98792.55;105835;1274;22651;-70
2022/08/30 00:39:11;;;;;;;9.10;4.90;;;;;;;13.60;82.32;98788.80;105834;1274;25357;-70
2022/08/30 00:41:38;;;;;;;7.40;4.60;;;;;;;13.59;82.36;98788.25;105864;1274;24083;-70
2022/08/30 00:44:05;;;;;;;8.90;5.00;;;;;;;13.57;82.29;98786.04;105846;1275;23002;-70
2022/08/30 00:46:32;;;;;;;5.60;4.10;;;;;;;13.56;82.45;98785.42;105867;1274;25573;-70
2022/08/30 00:49:04;;;;;;;9.20;4.00;;;;;;;13.55;82.56;98789.51;105886;1274;25353;-70
2022/08/30 00:51:32;;;;;;;10.60;4.70;;;;;;;13.54;82.70;98793.50;105842;1275;25005;-70
2022/08/30 00:54:00;;;;;;;5.80;4.30;;;;;;;13.54;82.69;98797.70;105888;1274;22569;-70
2022/08/30 00:56:28;;;;;;;10.50;4.30;;;;;;;13.54;82.69;98794.59;105805;1274;23004;-70
2022/08/30 00:58:59;;;;;;;9.80;4.20;;;;;;;13.52;82.59;98793.80;105852;1274;25307;-70
2022/08/30 01:01:31;;;;;;;8.20;4.10;;;;;;;13.50;82.56;98790.61;105904;1274;25333;-70
2022/08/30 01:04:04;;;;;;;7.90;4.30;;;;;;;13.48;82.41;98789.33;105918;1274;24217;-70
2022/08/30 01:06:33;;;;;;;7.90;4.50;;;;;;;13.45;82.33;98782.52;105878;1274;24255;-70
2022/08/30 01:09:02;;;;;;;7.00;4.50;;;;;;;13.42;82.38;98781.81;105864;1274;22532;-70
2022/08/30 01:11:33;;;;;;;7.20;4.60;;;;;;;13.39;82.51;98780.77;105903;1274;22555;-70
2022/08/30 01:14:01;;;;;;;9.40;4.20;;;;;;;13.36;82.69;98779.45;105865;1274;22999;-70
2022/08/30 01:16:33;;;;;;;10.60;4.50;;;;;;;13.33;82.71;98781.05;105838;1274;24010;-70
2022/08/30 01:19:01;;;;;;;8.10;4.40;;;;;;;13.31;82.79;98774.23;105821;1274;22560;-70
2022/08/30 01:21:47;;;;;;;10.30;5.40;;;;;;;13.29;82.90;98774.69;105830;1274;22548;-70
2022/08/30 01:24:14;;;;;;;8.50;4.80;;;;;;;13.28;83.08;98778.23;105856;1274;23557;-71
2022/08/30 01:26:41;;;;;;;10.10;5.50;;;;;;;13.26;83.06;98781.81;105875;1274;24374;-71
2022/08/30 01:29:16;;;;;;;10.10;5.00;;;;;;;13.23;83.07;98777.02;105870;1274;25240;-70
2022/08/30 01:31:43;;;;;;;10.00;4.90;;;;;;;13.21;83.18;98772.40;105851;1274;24408;-70
2022/08/30 01:34:11;;;;;;;9.30;5.50;;;;;;;13.19;83.12;98773.36;105789;1277;22544;-71
2022/08/30 01:36:41;;;;;;;8.10;5.60;;;;;;;13.16;83.64;98778.52;105812;1278;22814;-71
2022/08/30 01:39:10;;;;;;;12.50;5.40;;;;;;;13.13;83.39;98775.25;105775;1277;22557;-70
2022/08/30 01:41:37;;;;;;;;;;;;;;;13.10;83.65;98775.43;105873;1274;24297;-71
2022/08/30 01:44:09;;;;;;;7.50;4.70;;;;;;;13.07;83.69;98777.05;105861;1274;22613;-70
2022/08/30 01:46:41;;;;;;;11.40;5.20;;;;;;;13.05;83.79;98781.77;105880;1274;24322;-71
2022/08/30 01:49:11;;;;;;;7.50;4.50;;;;;;;13.04;83.86;98780.15;105862;1274;22548;-71
2022/08/30 01:51:39;;;;;;;8.70;4.70;;;;;;;13.02;83.80;98781.39;105851;1274;24380;-70
2022/08/30 01:54:07;;;;;;;8.30;4.70;;;;;;;13.00;83.71;98780.45;105813;1274;25280;-71
2022/08/30 01:56:34;;;;;;;4.70;4.00;;;;;;;12.98;83.59;98776.48;105897;1274;24270;-70
2022/08/30 01:59:01;;;;;;;7.80;4.70;;;;;;;12.95;83.52;98773.81;105878;1274;22612;-70
2022/08/30 02:01:30;;;;;;;12.60;5.50;;;;;;;12.92;83.80;98774.48;105880;1274;22586;-71
2022/08/30 02:03:57;;;;;;;8.90;5.10;;;;;;;12.91;84.01;98774.30;105804;1274;22734;-71
2022/08/30 02:06:26;;;;;;;10.60;5.00;;;;;;;12.90;84.06;98775.61;105791;1278;24402;-71
2022/08/30 02:08:54;;;;;;;12.10;5.20;;;;;;;12.87;84.01;98770.70;105813;1274;25243;-70
2022/08/30 02:11:21;;;;;;;14.10;6.40;;;;;;;12.85;84.32;98769.52;105744;1278;25330;-70
2022/08/30 02:13:49;;;;;;;8.10;5.60;;;;;;;12.84;84.63;98769.89;105861;1274;30498;-71
2022/08/30 02:16:21;;;;;;;14.80;6.80;;;;;;;12.80;84.76;98769.46;105900;1274;22618;-71
2022/08/30 02:18:50;;;;;;;14.90;6.60;;;;;;;12.79;84.96;98768.52;105907;1274;24501;-71
2022/08/30 02:21:17;;;;;;;;;;;;;;;12.80;84.67;98771.25;105947;1274;22503;-70
2022/08/30 02:23:44;;;;;;;12.90;6.10;;;;;;;12.78;85.18;98767.88;105837;1274;22555;-71
2022/08/30 02:26:12;;;;;;;12.10;6.20;;;;;;;12.75;85.21;98769.77;105841;1274;23976;-70
2022/08/30 02:28:39;;;;;;;12.10;6.20;;;;;;;12.74;85.25;98773.79;105837;1274;22536;-70
2022/08/30 02:31:06;;;;;;;10.80;6.60;;;;;;;12.74;85.57;98772.54;105821;1274;24204;-71
2022/08/30 02:33:33;;;;;;;10.90;6.50;;;;;;;12.72;85.39;98770.66;105862;1274;25232;-71
2022/08/30 02:36:00;;;;;;;11.80;6.70;;;;;;;12.67;85.45;98769.77;105879;1274;22553;-70
2022/08/30 02:38:27;;;;;;;16.90;7.20;;;;;;;12.65;85.84;98771.04;105888;1274;22551;-70
2022/08/30 02:40:54;;;;;;;9.20;6.30;;;;;;;12.63;85.96;98767.19;105894;1274;22545;-70
2022/08/30 02:43:21;;;;;;;14.50;6.30;;;;;;;12.62;85.89;98766.95;105847;1274;22525;-70
2022/08/30 02:45:48;;;;;;;11.50;6.40;;;;;;;12.62;86.02;98762.85;105820;1274;24221;-70
2022/08/30 02:48:18;;;;;;;17.00;7.10;;;;;;;12.60;85.83;98760.21;105829;1274;25244;-70
2022/08/30 02:50:50;;;;;;;11.60;5.70;;;;;;;12.59;85.97;98757.89;105837;1274;22567;-70
2022/08/30 02:53:20;;;;;;;11.60;6.30;;;;;;;12.58;86.08;98752.54;105848;1274;22552;-70
2022/08/30 02:55:48;;;;;;;10.80;6.30;;;;;;;12.57;86.02;98753.27;105810;1274;22567;-70
2022/08/30 02:58:14;;;;;;;12.00;6.50;;;;;;;12.57;86.11;98757.82;105881;1274;24265;-70
2022/08/30 03:00:41;;;;;;;11.80;6.10;;;;;;;12.57;85.92;98754.04;105875;1274;23637;-70
2022/08/30 03:03:09;;;;;;;10.30;7.00;;;;;;;12.57;86.21;98757.27;105831;1274;22867;-70
2022/08/30 03:05:36;;;;;;;12.50;6.00;;;;;;;12.57;86.22;98761.86;105837;1274;22550;-70
2022/08/30 03:08:03;;;;;;;9.60;6.40;;;;;;;12.57;85.88;98761.52;105843;1274;22595;-70
2022/08/30 03:10:30;;;;;;;10.40;6.10;;;;;;;12.56;86.17;98766.88;105838;1274;24219;-70
2022/08/30 03:12:57;;;;;;;10.10;6.40;;;;;;;12.55;85.98;98763.46;105837;1274;22662;-70
2022/08/30 03:15:25;;;;;;;15.20;6.50;;;;;;;12.52;86.11;98770.41;105835;1274;24388;-70
2022/08/30 03:17:53;;;;;;;17.10;7.10;;;;;;;12.50;86.04;98776.29;105881;1274;22558;-70
2022/08/30 03:20:23;;;;;;;9.50;5.90;;;;;;;12.50;86.21;98778.03;105833;1274;26469;-70
2022/08/30 03:22:50;;;;;;;10.80;5.90;;;;;;;12.49;85.86;98779.98;105895;1274;24223;-70
2022/08/30 03:25:19;;;;;;;11.10;6.20;;;;;;;12.49;86.08;98782.71;105824;1274;22587;-70
2022/08/30 03:27:49;;;;;;;11.10;6.40;;;;;;;12.48;85.75;98783.25;105776;1277;25324;-70
2022/08/30 03:30:20;;;;;;;12.30;5.80;;;;;;;12.47;85.50;98787.33;105805;1274;25509;-70
2022/08/30 03:32:46;;;;;;;10.70;5.80;;;;;;;12.40;85.33;98785.85;105809;1274;24318;-70
2022/08/30 03:35:15;;;;;;;9.70;6.70;;;;;;;12.35;85.37;98790.36;105812;1274;25200;-70
2022/08/30 03:37:43;;;;;;;14.80;7.20;;;;;;;12.30;85.70;98787.45;105936;1274;22567;-70
2022/08/30 03:40:13;;;;;;;11.40;7.40;;;;;;;12.29;86.03;98787.10;105906;1274;22540;-70
2022/08/30 03:42:40;;;;;;;;;;;;;;;12.26;86.38;98785.85;105943;1274;22551;-69
2022/08/30 03:45:07;;;;;;;14.20;7.40;;;;;;;12.22;86.88;98786.77;105835;1274;24825;-70
2022/08/30 03:47:34;;;;;;;12.80;7.50;;;;;;;12.18;87.11;98788.16;105840;1274;22560;-70
2022/08/30 03:50:03;;;;;;;19.30;8.00;;;;;;;12.14;87.40;98789.35;105815;1274;23788;-70
2022/08/30 03:52:30;;;;;;;21.80;7.80;;;;;;;12.11;87.43;98788.42;105868;1274;22752;-70
2022/08/30 03:54:57;;;;;;;12.00;7.20;;;;;;;12.08;87.75;98791.98;105930;1274;22548;-70
2022/08/30 03:57:24;;;;;;;14.70;7.00;;;;;;;12.05;87.53;98791.23;105942;1274;22562;-70
2022/08/30 03:59:51;;;;;;;14.00;7.20;;;;;;;12.02;87.46;98795.38;105898;1274;24409;-69
2022/08/30 04:02:40;;;;;;;16.30;8.20;;;;;;;11.98;87.72;98796.45;106016;1274;23017;-69
2022/08/30 04:05:09;;;;;;;13.00;7.10;;;;;;;11.95;87.76;98798.37;105919;1274;22551;-70
2022/08/30 04:07:36;;;;;;;15.70;7.70;;;;;;;11.94;87.80;98800.82;105796;1274;24252;-69
2022/08/30 04:10:06;;;;;;;14.60;8.20;;;;;;;11.94;88.40;98803.80;105971;1274;26508;-69
2022/08/30 04:12:34;;;;;;;14.10;7.80;;;;;;;11.97;88.31;98810.63;105974;1274;22700;-69
2022/08/30 04:15:02;;;;;;;13.70;8.10;;;;;;;12.00;88.45;98806.09;105924;1274;22864;-69
2022/08/30 04:17:29;;;;;;;15.50;8.60;;;;;;;12.04;88.75;98805.34;106050;1274;25235;-69
2022/08/30 04:19:56;;;;;;;15.90;8.90;;;;;;;12.07;88.88;98802.50;105992;1274;25424;-69
2022/08/30 04:22:23;;;;;;;19.60;9.10;;;;;;;12.08;88.86;98803.89;105977;1274;24217;-69
2022/08/30 04:24:50;;;;;;;19.80;9.20;;;;;;;12.11;88.76;98807.65;105889;1274;22536;-71
2022/08/30 04:27:19;;;;;;;15.30;8.10;;;;;;;12.14;89.05;98810.00;105884;1274;24311;-71
2022/08/30 04:29:47;;;;;;;14.60;8.20;;;;;;;12.15;88.94;98812.38;105877;1274;22707;-71
2022/08/30 04:32:15;;;;;;;13.80;9.30;;;;;;;12.17;88.87;98812.34;105890;1274;24367;-71
2022/08/30 04:34:42;;;;;;;14.50;9.40;;;;;;;12.17;88.66;98817.80;106000;1274;25302;-71
2022/08/30 04:37:09;;;;;;;20.70;9.90;;;;;;;12.18;88.45;98816.94;105954;1274;22528;-71
2022/08/30 04:39:36;;;;;;;16.40;9.60;;;;;;;12.21;88.73;98815.36;105949;1274;24269;-71
2022/08/30 04:42:03;;;;;;;15.30;9.30;;;;;;;12.26;89.20;98818.29;105984;1273;24446;-71
2022/08/30 04:44:31;;;;;;;13.30;8.90;;;;;;;12.29;88.90;98819.77;105957;1274;22544;-72
2022/08/30 04:46:57;;;;;;;15.10;8.70;;;;;;;12.35;88.76;98824.77;105853;1277;24224;-71
2022/08/30 04:49:24;;;;;;;14.30;8.90;;;;;;;12.41;88.81;98825.09;105875;1274;22546;-69
2022/08/30 04:51:51;;;;;;;17.30;8.90;;;;;;;12.45;88.53;98832.48;105899;1274;22535;-69
2022/08/30 04:54:18;;;;;;;14.40;8.40;;;;;;;12.51;88.51;98830.88;105903;1274;25347;-69
2022/08/30 04:56:45;;;;;;;13.00;8.10;;;;;;;12.55;88.20;98834.23;105969;1274;22540;-69
2022/08/30 04:59:12;;;;;;;16.30;8.90;;;;;;;12.60;88.18;98837.20;105969;1274;23242;-69
2022/08/30 05:01:40;;;;;;;13.80;8.90;;;;;;;12.63;87.86;98840.63;105968;1274;24269;-69
2022/08/30 05:04:07;;;;;;;15.10;8.00;;;;;;;12.67;88.05;98840.20;105950;1274;23418;-69
2022/08/30 05:06:35;;;;;;;17.10;9.50;;;;;;;12.71;87.91;98840.58;105901;1274;24015;-69
2022/08/30 05:09:02;;;;;;;14.20;9.10;;;;;;;12.76;87.85;98836.78;105910;1274;23945;-69
2022/08/30 05:11:28;;;;;;;19.70;10.30;;;;;;;12.80;87.77;98838.76;105892;1274;22688;-69
2022/08/30 05:13:55;;;;;;;15.90;8.90;;;;;;;12.84;87.87;98838.61;105880;1274;23295;-69
2022/08/30 05:16:22;;;;;;;17.30;9.10;;;;;;;12.88;87.81;98838.62;105829;1274;22549;-69
2022/08/30 05:18:50;;;;;;;17.00;10.00;;;;;;;12.93;87.59;98838.80;105982;1274;25194;-69
2022/08/30 05:21:21;;;;;;;16.50;10.10;;;;;;;12.97;87.48;98840.55;105990;1274;23972;-69
2022/08/30 05:23:49;;;;;;;21.00;10.80;;;;;;;13.01;87.62;98841.97;105980;1274;22554;-69
2022/08/30 05:26:29;;;;;;;16.40;10.70;;;;;;;13.06;87.62;98843.13;105946;1274;23420;-69
2022/08/30 05:28:56;;;;;;;18.10;10.30;;;;;;;13.11;87.71;98841.02;105893;1274;22533;-69
2022/08/30 05:31:27;;;;;;;19.20;12.00;;;;;;;13.16;87.63;98846.88;105898;1274;24077;-70
2022/08/30 05:33:55;;;;;;;21.20;11.00;;;;;;;13.20;87.50;98843.31;105902;1274;22535;-69
2022/08/30 05:36:25;;;;;;;17.50;11.00;;;;;;;13.24;87.58;98847.17;105958;1274;23103;-69
2022/08/30 05:38:54;;;;;;;17.20;12.10;;;;;;;13.28;87.53;98842.72;105969;1274;22528;-69
2022/08/30 05:41:23;;;;;;;20.60;11.80;;;;;;;13.33;87.51;98846.48;106074;1274;25283;-69
2022/08/30 05:43:55;;;;;;;18.00;11.50;;;;;;;13.39;87.76;98844.92;105997;1274;22793;-69
2022/08/30 05:46:22;;;;;;;19.70;12.10;;;;;;;13.46;87.67;98841.35;106025;1274;24364;-69
2022/08/30 05:48:50;;;;;;;18.00;11.30;;;;;;;13.52;87.73;98840.66;105913;1274;22567;-69
2022/08/30 05:51:23;;;;;;;19.40;11.80;;;;;;;13.59;87.63;98840.84;105906;1274;22561;-69
2022/08/30 05:53:51;;;;;;;22.90;11.80;;;;;;;13.64;87.65;98838.27;105940;1274;22535;-69
2022/08/30 05:56:21;;;;;;;21.30;11.80;;;;;;;13.71;87.70;98837.20;106031;1274;22854;-70
2022/08/30 05:59:03;;;;;;;20.20;11.10;;;;;;;13.77;87.58;98838.70;106006;1274;22545;-69
2022/08/30 06:02:06;;;;;;;21.00;11.00;;;;;;;13.85;87.43;98846.62;105442;1277;22534;-69
2022/08/30 06:04:45;;;;;;;22.80;11.30;;;;;;;13.95;87.41;98847.65;105303;1280;25309;-69
2022/08/30 06:07:12;;;;;;;22.10;11.00;;;;;;;14.04;87.40;98852.30;105264;1281;25545;-70
2022/08/30 06:09:39;;;;;;;15.60;10.80;;;;;;;14.11;87.18;98848.70;105241;1283;22593;-70
2022/08/30 06:12:06;;;;;;;17.40;10.50;;;;;;;14.19;87.15;98847.73;105230;1283;26511;-70
2022/08/30 06:14:33;;;;;;;18.80;10.00;;;;;;;14.28;86.87;98846.73;105261;1283;22695;-69
2022/08/30 06:17:00;;;;;;;20.10;11.40;;;;;;;14.36;86.88;98849.59;105604;1281;22780;-70
2022/08/30 06:19:27;;;;;;;18.00;10.00;;;;;;;14.43;86.63;98851.52;105378;1280;23037;-69
2022/08/30 06:21:54;;;;;;;21.30;10.70;;;;;;;14.51;86.55;98852.79;105325;1280;25478;-69
2022/08/30 06:24:21;;;;;;;18.70;10.50;;;;;;;14.60;86.37;98848.45;105419;1280;22731;-70
2022/08/30 06:26:48;;;;;;;18.40;10.80;;;;;;;14.69;86.31;98852.48;105345;1283;22614;-70
2022/08/30 06:29:18;;;;;;;20.70;11.10;;;;;;;14.77;86.18;98852.70;105236;1283;22669;-70
2022/08/30 06:31:44;;;;;;;16.70;10.00;;;;;;;14.87;86.07;98856.22;105339;1283;24242;-70
2022/08/30 06:34:12;;;;;;;18.80;9.40;;;;;;;14.98;85.82;98859.27;105533;1280;25328;-70
2022/08/30 06:36:40;;;;;;;15.40;10.00;;;;;;;15.07;85.68;98856.59;105738;1277;22630;-70
2022/08/30 06:39:08;;;;;;;17.20;10.30;;;;;;;15.16;85.37;98861.68;105861;1274;24288;-70
2022/08/30 06:41:38;;;;;;;16.10;11.00;;;;;;;15.24;84.97;98865.41;105966;1274;25275;-70
2022/08/30 06:44:12;;;;;;;17.00;10.50;;;;;;;15.31;84.69;98862.20;105854;1274;23807;-70
2022/08/30 06:46:39;;;;;;;18.40;10.40;;;;;;;15.39;84.57;98860.39;105940;1274;25351;-71
2022/08/30 06:49:06;;;;;;;20.60;9.60;;;;;;;15.46;84.52;98856.74;104628;1274;1636132;-70
2022/08/30 06:51:37;;;;;;;21.60;9.70;;;;;;;15.51;84.37;98858.91;105910;1274;23943;-70
2022/08/30 06:54:06;;;;;;;17.00;9.80;;;;;;;15.57;83.73;98858.33;105830;1277;23861;-70
2022/08/30 06:56:32;;;;;;;19.50;9.90;;;;;;;15.61;83.75;98853.96;105862;1274;22571;-70
2022/08/30 06:58:59;;;;;;;20.30;10.10;;;;;;;15.67;83.83;98860.79;105900;1274;25981;-70
2022/08/30 07:01:28;;;;;;;23.30;10.30;;;;;;;15.73;83.73;98863.20;105934;1274;25238;-69
2022/08/30 07:03:57;;;;;;;25.90;9.50;;;;;;;15.80;83.78;98863.67;106307;1274;22556;-69
2022/08/30 07:06:25;;;;;;;18.50;9.70;;;;;;;15.87;83.74;98863.75;108458;1274;22719;-69
2022/08/30 07:08:53;;;;;;;17.70;9.30;;;;;;;15.96;83.84;98864.59;106249;1274;25423;-70
2022/08/30 07:11:34;;;;;;;13.40;7.80;;;;;;;16.04;83.68;98867.31;105871;1274;24415;-70
2022/08/30 07:14:03;;;;;;;20.20;8.30;;;;;;;16.16;83.31;98872.23;105890;1274;22775;-70
2022/08/30 07:16:30;;;;;;;14.10;8.40;;;;;;;16.26;83.11;98870.88;105907;1274;22534;-70
2022/08/30 07:18:59;;;;;;;23.00;8.50;;;;;;;16.36;82.78;98876.05;105872;1274;25372;-70
2022/08/30 07:21:32;;;;;;;17.20;8.80;;;;;;;16.45;82.39;98876.02;106016;1274;22651;-70
2022/08/30 07:24:00;;;;;;;28.00;9.90;;;;;;;16.55;82.18;98872.62;105942;1274;22540;-71
2022/08/30 07:26:37;;;;;;;18.80;9.30;;;;;;;16.64;81.88;98872.67;106058;1273;24966;-70
2022/08/30 07:29:05;;;;;;;13.20;8.60;;;;;;;16.73;81.48;98874.77;106044;1274;25338;-70
2022/08/30 07:31:33;;;;;;;17.60;8.70;;;;;;;16.81;81.66;98872.56;105902;1274;24224;-71
2022/08/30 07:34:02;;;;;;;16.80;8.80;;;;;;;16.93;81.48;98873.35;105904;1274;25431;-71
2022/08/30 07:36:29;;;;;;;19.50;9.30;;;;;;;17.06;81.40;98878.45;106033;1274;24133;-71
2022/08/30 07:38:56;;;;;;;17.20;8.20;;;;;;;17.17;80.93;98874.65;105923;1274;25464;-71
2022/08/30 07:41:29;;;;;;;12.30;7.60;;;;;;;17.28;80.59;98870.67;105885;1274;24308;-71
2022/08/30 07:43:57;;;;;;;14.90;8.30;;;;;;;17.40;80.41;98866.66;105938;1274;25336;-71
2022/08/30 07:46:25;;;;;;;13.20;8.10;;;;;;;17.51;80.30;98866.08;105955;1272;24419;-69
2022/08/30 07:48:54;;;;;;;15.10;8.60;;;;;;;17.62;79.83;98861.73;105913;1274;24312;-70
2022/08/30 07:51:24;;;;;;;14.30;7.90;;;;;;;17.72;79.43;98865.94;105962;1274;24288;-70
2022/08/30 07:53:53;;;;;;;15.90;7.80;;;;;;;17.85;79.25;98862.04;105835;1274;22563;-70
2022/08/30 07:56:20;;;;;;;14.70;7.30;;;;;;;17.96;78.60;98860.08;106104;1273;23085;-70
2022/08/30 07:58:48;;;;;;;17.80;8.00;;;;;;;18.05;78.57;98856.71;105865;1274;22742;-70
2022/08/30 08:01:16;;;;;;;16.10;8.20;;;;;;;18.16;78.52;98858.20;105910;1274;22562;-71
2022/08/30 08:03:45;;;;;;;13.10;7.30;;;;;;;18.28;78.47;98856.45;105898;1274;25352;-70
2022/08/30 08:06:13;;;;;;;;;;;;;;;18.38;77.82;98858.98;106025;1274;22506;-70
2022/08/30 08:08:44;;;;;;;12.00;7.60;;;;;;;18.45;77.23;98859.16;105893;1274;22616;-70
2022/08/30 08:11:13;;;;;;;12.50;7.40;;;;;;;18.57;76.90;98859.50;105820;1274;22561;-71
2022/08/30 08:13:42;;;;;;;13.60;6.80;;;;;;;18.75;76.63;98858.86;105847;1274;25522;-70
2022/08/30 08:16:09;;;;;;;13.40;7.30;;;;;;;18.94;76.47;98857.67;105812;1277;22868;-70
2022/08/30 08:18:36;;;;;;;11.30;7.50;;;;;;;19.14;75.91;98858.75;105841;1276;25514;-70
2022/08/30 08:21:04;;;;;;;11.10;5.90;;;;;;;19.35;75.18;98855.45;105829;1274;30116;-69
2022/08/30 08:23:31;;;;;;;9.80;6.20;;;;;;;19.50;74.32;98856.61;105847;1274;24334;-70
2022/08/30 08:25:58;;;;;;;10.60;6.30;;;;;;;19.57;73.74;98857.40;106102;1274;22553;-70
2022/08/30 08:28:25;;;;;;;10.80;6.00;;;;;;;19.67;73.33;98859.55;105932;1274;22553;-70
2022/08/30 08:30:52;;;;;;;10.80;6.20;;;;;;;19.84;73.26;98860.30;105920;1274;22544;-70
2022/08/30 08:33:20;;;;;;;13.30;6.10;;;;;;;20.08;72.72;98860.91;105847;1274;22550;-70
2022/08/30 08:35:47;;;;;;;11.10;5.40;;;;;;;20.32;71.29;98862.58;105981;1274;22697;-70
2022/08/30 08:38:14;;;;;;;12.60;6.60;;;;;;;20.55;70.12;98862.33;105862;1274;22554;-70
2022/08/30 08:41:01;;;;;;;8.10;5.40;;;;;;;20.68;69.16;98861.89;105911;1274;22570;-70
2022/08/30 08:43:33;;;;;;;11.20;5.40;;;;;;;20.70;68.64;98864.90;105912;1274;25190;-70
2022/08/30 08:46:11;;;;;;;7.70;4.90;;;;;;;20.72;68.79;98867.02;105953;1274;25658;-69
2022/08/30 08:48:38;;;;;;;8.80;5.00;;;;;;;20.74;68.36;98868.58;105991;1274;23525;-71
2022/08/30 08:54:01;;;;;;;6.80;4.60;;;;;;;20.73;66.51;98868.77;105871;1274;22541;-70
2022/08/30 08:56:28;;;;;;;8.00;5.00;;;;;;;20.71;66.47;98865.64;105929;1274;23412;-70
2022/08/30 08:58:56;;;;;;;9.60;5.10;;;;;;;20.75;67.28;98868.01;105979;1274;24269;-70
2022/08/30 09:01:28;;;;;;;9.00;5.20;;;;;;;20.87;67.86;98870.75;105858;1274;25277;-71
2022/08/30 09:03:57;;;;;;;7.40;4.90;;;;;;;20.99;67.75;98869.83;105920;1274;22546;-70
2022/08/30 09:06:58;;;;;;;11.10;5.50;;;;;;;21.09;67.02;98866.77;106031;1274;23241;-70
2022/08/30 09:09:33;;;;;;;6.40;4.20;;;;;;;21.16;66.37;98866.25;106405;1274;22619;-69
2022/08/30 09:12:00;;;;;;;7.00;4.50;;;;;;;21.17;64.39;98865.19;106055;1274;24332;-70
2022/08/30 09:14:34;;;;;;;7.00;4.70;;;;;;;21.16;64.11;98864.30;106125;1274;23919;-70
2022/08/30 09:17:07;;;;;;;8.60;5.50;;;;;;;21.18;65.31;98864.22;105956;1274;25346;-70
2022/08/30 09:19:53;;;;;;;11.30;6.20;;;;;;;21.24;65.79;98866.27;106023;1274;25544;-70
2022/08/30 09:22:34;;;;;;;8.10;5.50;;;;;;;21.35;65.33;98864.06;105920;1274;30358;-70
2022/08/30 09:25:04;;;;;;;10.60;5.80;;;;;;;21.63;65.18;98865.98;105992;1274;23958;-71
2022/08/30 09:27:31;;;;;;;9.20;5.00;;;;;;;21.91;64.24;98855.86;105949;1274;25355;-69
2022/08/30 09:30:00;;;;;;;9.40;5.10;;;;;;;22.18;63.74;98857.07;105981;1274;24269;-70
2022/08/30 09:32:35;;;;;;;8.00;5.60;;;;;;;22.28;63.71;98857.69;105905;1274;25633;-71
2022/08/30 09:35:04;;;;;;;10.00;5.60;;;;;;;22.27;62.74;98857.21;105941;1274;25351;-71
2022/08/30 09:37:36;;;;;;;10.40;5.60;;;;;;;22.19;62.05;98856.20;105969;1274;22700;-70
2022/08/30 09:40:32;;;;;;;9.70;5.30;;;;;;;22.31;62.55;98857.02;105957;1274;25397;-70
2022/08/30 09:43:08;;;;;;;9.00;5.00;;;;;;;22.51;62.43;98849.71;105914;1273;30425;-70
2022/08/30 09:45:41;;;;;;;8.40;4.90;;;;;;;22.74;61.52;98848.42;106135;1274;22845;-69
2022/08/30 09:48:29;;;;;;;5.80;5.20;;;;;;;22.97;60.94;98846.48;105932;1274;22613;-70
2022/08/30 09:51:09;;;;;;;7.80;5.30;;;;;;;23.19;59.65;98847.64;105942;1274;24273;-71
2022/08/30 09:53:42;;;;;;;8.50;5.00;;;;;;;23.34;59.72;98845.39;105912;1272;30558;-69
2022/08/30 09:56:37;;;;;;;9.00;5.20;;;;;;;23.58;58.55;98846.73;105922;1274;24091;-69
2022/08/30 09:59:19;;;;;;;6.20;4.40;;;;;;;23.80;57.76;98843.11;105882;1274;25423;-69
2022/08/30 10:01:52;;;;;;;11.10;5.50;;;;;;;24.04;57.74;98838.45;105867;1274;22552;-69
2022/08/30 10:04:39;;;;;;;11.20;6.20;;;;;;;24.03;56.99;98839.02;105944;1274;25295;-69
2022/08/30 10:07:44;;;;;;;9.20;6.20;;;;;;;23.87;56.56;98834.95;105940;1274;22540;-69
2022/08/30 10:10:24;;;;;;;8.30;5.50;;;;;;;23.71;57.20;98836.46;105327;1280;23937;-69
2022/08/30 10:13:11;;;;;;;8.50;5.00;;;;;;;23.58;56.90;98837.83;105306;1283;22550;-69
2022/08/30 10:15:50;;;;;;;9.90;5.00;;;;;;;23.31;56.51;98837.36;105314;1283;22554;-69
2022/08/30 10:18:22;;;;;;;9.50;5.00;;;;;;;23.12;56.32;98832.37;105280;1283;22590;-69
2022/08/30 10:21:03;;;;;;;7.80;5.40;;;;;;;23.13;57.05;98829.89;105422;1280;22859;-69
2022/08/30 10:23:40;;;;;;;5.60;4.10;;;;;;;23.28;57.15;98833.00;105377;1280;22561;-69
2022/08/30 10:26:09;;;;;;;7.00;4.20;;;;;;;23.48;56.13;98833.52;105448;1280;22641;-68
2022/08/30 10:28:43;;;;;;;5.50;4.10;;;;;;;23.64;56.38;98832.02;105416;1280;24313;-68
2022/08/30 10:31:16;;;;;;;3.90;3.50;;;;;;;23.77;55.34;98833.05;105513;1280;22584;-69
2022/08/30 10:33:47;;;;;;;6.50;3.20;;;;;;;23.88;54.76;98824.95;105386;1280;22581;-69
2022/08/30 10:36:26;;;;;;;9.70;4.40;;;;;;;24.03;54.36;98821.02;105449;1280;22556;-69
2022/08/30 10:38:53;;;;;;;4.90;3.60;;;;;;;24.05;53.04;98818.39;105457;1280;24384;-69
2022/08/30 10:41:30;;;;;;;6.10;4.20;;;;;;;24.09;53.83;98822.42;105369;1280;22563;-69
2022/08/30 10:44:03;;;;;;;6.10;4.50;;;;;;;24.08;54.10;98819.64;105376;1280;22538;-69
2022/08/30 10:46:38;;;;;;;6.90;4.10;;;;;;;24.15;54.05;98820.98;105436;1275;25245;-69
2022/08/30 10:49:14;;;;;;;6.90;3.80;;;;;;;24.27;53.53;98818.92;106164;1274;23276;-69
2022/08/30 10:51:59;;;;;;;8.30;4.30;;;;;;;24.51;53.69;98813.83;106040;1274;25486;-69
2022/08/30 10:54:39;;;;;;;5.80;4.00;;;;;;;24.74;52.77;98811.28;105863;1274;25332;-69
2022/08/30 10:57:06;;;;;;;8.00;4.20;;;;;;;24.75;53.12;98805.23;105872;1277;25284;-69
2022/08/30 10:59:37;;;;;;;4.30;3.00;;;;;;;24.69;52.97;98806.39;105868;1277;22548;-68
2022/08/30 11:02:27;;;;;;;5.70;3.20;;;;;;;24.79;51.76;98805.77;105945;1274;25351;-69
2022/08/30 11:05:12;;;;;;;5.40;3.80;;;;;;;24.87;51.75;98804.66;105895;1274;30709;-69
2022/08/30 11:07:39;;;;;;;5.70;3.40;;;;;;;24.92;52.19;98806.50;106073;1274;24224;-69
2022/08/30 11:10:08;;;;;;;4.30;2.90;;;;;;;24.71;52.01;98810.53;106024;1273;24288;-69
2022/08/30 11:12:58;;;;;;;4.80;3.10;;;;;;;24.18;52.68;98808.67;105929;1274;25237;-68
2022/08/30 11:15:30;;;;;;;5.80;2.90;;;;;;;23.70;53.85;98812.57;105859;1274;31525;-68
2022/08/30 11:18:09;;;;;;;4.00;2.90;;;;;;;23.32;54.74;98816.14;105935;1274;22736;-68
2022/08/30 11:20:44;;;;;;;6.40;3.30;;;;;;;23.24;55.95;98813.03;105939;1274;22532;-69
2022/08/30 11:23:24;;;;;;;3.70;2.90;;;;;;;23.47;56.60;98814.47;105939;1274;24291;-69
2022/08/30 11:25:58;;;;;;;3.20;2.50;;;;;;;23.82;56.37;98808.04;105943;1274;30264;-69
2022/08/30 11:28:34;;;;;;;3.60;2.90;;;;;;;24.09;55.36;98806.84;105959;1274;22719;-69
2022/08/30 11:31:11;;;;;;;3.50;2.60;;;;;;;24.16;54.66;98807.30;105915;1274;22575;-70
2022/08/30 11:33:55;;;;;;;7.80;2.80;;;;;;;24.01;54.54;98805.59;105999;1274;22846;-70
2022/08/30 11:36:28;;;;;;;3.00;2.70;;;;;;;23.74;54.32;98805.16;106021;1274;30624;-68
2022/08/30 11:38:59;;;;;;;3.50;2.80;;;;;;;23.31;54.10;98810.84;105905;1274;23291;-69